Time;durP1;ratioP1;P1;durP2;ratioP2;P2;SDS_P1;SDS_P2;PMS_P1;PMS_P2;Temp;Humidity;BMP_temperature;BMP_pressure;BME280_temperature;BME280_humidity;BME280_pressure;Samples;Min_cycle;Max_cycle;Signal;HPM_P1;HPM_P2
2023/03/10 00:01:17;;;;;;;60.17;34.75;;;5.30;99.90;;;;;;5029808;28;20261;-88
2023/03/10 00:03:45;;;;;;;57.72;35.30;;;5.00;99.90;;;;;;5025801;28;20197;-85
2023/03/10 00:06:15;;;;;;;51.60;34.33;;;5.20;99.90;;;;;;5021105;28;20195;-83
2023/03/10 00:08:42;;;;;;;54.33;33.92;;;5.10;99.90;;;;;;5024814;28;20246;-87
2023/03/10 00:11:10;;;;;;;52.70;33.90;;;5.10;99.90;;;;;;5030115;28;20215;-83
2023/03/10 00:13:38;;;;;;;54.80;34.22;;;5.20;99.90;;;;;;5022787;28;20410;-83
2023/03/10 00:16:06;;;;;;;56.65;33.22;;;5.10;99.90;;;;;;5003992;28;20332;-85
2023/03/10 00:18:33;;;;;;;56.75;36.05;;;5.20;99.90;;;;;;5024472;28;20482;-86
2023/03/10 00:21:00;;;;;;;55.95;36.50;;;5.20;99.90;;;;;;5026725;28;20548;-83
2023/03/10 00:23:27;;;;;;;52.22;35.22;;;5.20;99.90;;;;;;5020202;28;20300;-86
2023/03/10 00:25:59;;;;;;;54.92;33.30;;;5.00;99.90;;;;;;5004201;28;20208;-87
2023/03/10 00:28:26;;;;;;;51.95;36.08;;;5.00;99.90;;;;;;5005871;28;20208;-87
2023/03/10 00:31:03;;;;;;;53.17;32.28;;;5.10;99.90;;;;;;5021278;28;20291;-87
2023/03/10 00:33:31;;;;;;;48.95;35.15;;;5.30;99.90;;;;;;5020871;28;20293;-84
2023/03/10 00:36:14;;;;;;;51.15;33.33;;;5.30;99.90;;;;;;5026059;28;20208;-89
2023/03/10 00:38:42;;;;;;;63.35;36.80;;;5.50;99.90;;;;;;5023188;28;20201;-86
2023/03/10 00:41:15;;;;;;;56.80;35.85;;;5.50;99.90;;;;;;5031650;28;20223;-85
2023/03/10 00:43:43;;;;;;;65.50;37.92;;;5.50;99.90;;;;;;5036568;28;20181;-82
2023/03/10 00:46:10;;;;;;;57.67;36.25;;;5.30;99.90;;;;;;5040086;28;20201;-84
2023/03/10 00:48:37;;;;;;;61.63;37.15;;;5.30;99.90;;;;;;5028343;28;20264;-87
2023/03/10 00:51:05;;;;;;;53.00;32.63;;;5.30;99.90;;;;;;5023416;28;20241;-87
2023/03/10 00:53:37;;;;;;;54.35;34.65;;;5.20;99.90;;;;;;5022161;28;20234;-85
2023/03/10 00:56:07;;;;;;;50.15;33.78;;;5.20;99.90;;;;;;5021916;28;20216;-85
2023/03/10 00:58:34;;;;;;;54.92;34.28;;;5.10;99.90;;;;;;5026196;28;20259;-85
2023/03/10 01:01:02;;;;;;;52.67;34.75;;;4.90;99.90;;;;;;5021162;28;20205;-87
2023/03/10 01:03:30;;;;;;;47.70;32.63;;;4.90;99.90;;;;;;5029729;28;20212;-85
2023/03/10 01:05:57;;;;;;;63.85;35.65;;;4.80;99.90;;;;;;5024527;28;20579;-86
2023/03/10 01:08:23;;;;;;;54.80;33.88;;;4.70;99.90;;;;;;5029987;28;20216;-87
2023/03/10 01:10:50;;;;;;;67.78;32.60;;;4.70;99.90;;;;;;5028382;28;20197;-87
2023/03/10 01:13:18;;;;;;;60.35;33.88;;;4.60;99.90;;;;;;5018356;28;20244;-86
2023/03/10 01:15:49;;;;;;;51.50;34.00;;;4.60;99.90;;;;;;5027025;28;20503;-88
2023/03/10 01:18:18;;;;;;;55.75;34.83;;;4.60;99.90;;;;;;5021805;28;20247;-86
2023/03/10 01:20:45;;;;;;;62.70;38.83;;;4.70;99.90;;;;;;5026525;28;20424;-89
2023/03/10 01:23:23;;;;;;;57.65;34.33;;;4.70;99.90;;;;;;5021135;28;20224;-86
2023/03/10 01:25:51;;;;;;;60.05;36.85;;;4.80;99.90;;;;;;5020409;28;20211;-87
2023/03/10 01:28:19;;;;;;;63.10;35.30;;;4.70;99.90;;;;;;5031883;28;20564;-87
2023/03/10 01:30:47;;;;;;;55.42;35.05;;;4.60;99.90;;;;;;4999062;28;20216;-86
2023/03/10 01:33:16;;;;;;;65.43;39.83;;;4.40;99.90;;;;;;5003786;28;20231;-87
2023/03/10 01:35:43;;;;;;;57.67;34.42;;;4.40;99.90;;;;;;5002151;28;20205;-85
2023/03/10 01:38:11;;;;;;;62.15;36.58;;;4.40;99.90;;;;;;5019988;28;20400;-87
2023/03/10 01:40:39;;;;;;;64.45;39.75;;;4.50;99.90;;;;;;5002757;28;20208;-88
2023/03/10 01:43:30;;;;;;;67.93;38.90;;;4.50;99.90;;;;;;5024571;28;20216;-87
2023/03/10 01:46:00;;;;;;;59.80;35.35;;;4.50;99.90;;;;;;5015811;28;20230;-86
2023/03/10 01:48:34;;;;;;;64.80;35.95;;;4.50;99.90;;;;;;5022332;28;20200;-85
2023/03/10 01:51:02;;;;;;;51.85;35.08;;;4.60;99.90;;;;;;5019277;28;20219;-83
2023/03/10 01:53:29;;;;;;;61.97;37.75;;;4.60;99.90;;;;;;5014476;28;20239;-88
2023/03/10 01:56:01;;;;;;;58.75;36.63;;;4.60;99.90;;;;;;5018359;28;20213;-87
2023/03/10 01:58:36;;;;;;;48.90;29.70;;;4.70;99.90;;;;;;5017773;28;20520;-87
2023/03/10 02:01:04;;;;;;;68.88;36.65;;;4.70;99.90;;;;;;5023639;28;20229;-87
2023/03/10 02:03:53;;;;;;;54.90;35.45;;;4.70;99.90;;;;;;5020315;28;20211;-85
2023/03/10 02:06:22;;;;;;;47.08;30.17;;;4.80;99.90;;;;;;5021234;28;20286;-88
2023/03/10 02:08:52;;;;;;;48.05;31.70;;;4.90;99.90;;;;;;5024482;28;20201;-83
2023/03/10 02:11:20;;;;;;;49.38;32.80;;;5.00;99.90;;;;;;5024195;28;20210;-87
2023/03/10 02:13:47;;;;;;;52.40;34.22;;;5.10;99.90;;;;;;5000638;28;20230;-88
2023/03/10 02:16:16;;;;;;;45.08;30.15;;;5.30;99.90;;;;;;5018021;28;20212;-86
2023/03/10 02:18:45;;;;;;;49.28;30.67;;;5.30;99.90;;;;;;5022972;28;20531;-88
2023/03/10 02:21:30;;;;;;;50.20;30.25;;;5.50;99.90;;;;;;5018184;28;20223;-86
2023/03/10 02:24:33;;;;;;;51.33;30.38;;;5.50;99.90;;;;;;5011221;28;20249;-86
2023/03/10 02:27:23;;;;;;;47.97;31.65;;;5.60;99.90;;;;;;5014234;28;20215;-86
2023/03/10 02:30:01;;;;;;;45.20;30.52;;;5.70;99.90;;;;;;5024042;28;20193;-87
2023/03/10 02:32:34;;;;;;;41.72;27.55;;;5.70;99.90;;;;;;5032977;28;20203;-89
2023/03/10 02:35:02;;;;;;;45.00;26.58;;;5.80;99.90;;;;;;5004432;28;20211;-86
2023/03/10 02:37:32;;;;;;;38.38;24.90;;;5.90;99.90;;;;;;5011511;28;20216;-84
2023/03/10 02:40:00;;;;;;;31.15;22.40;;;5.90;99.90;;;;;;5031061;28;20192;-85
2023/03/10 02:42:33;;;;;;;25.88;19.40;;;6.00;99.90;;;;;;5031585;28;20208;-83
2023/03/10 02:45:01;;;;;;;33.13;19.67;;;6.00;99.90;;;;;;5031516;28;20189;-87
2023/03/10 02:47:28;;;;;;;30.00;18.58;;;6.10;99.90;;;;;;5038179;28;20266;-84
2023/03/10 02:49:55;;;;;;;18.85;16.10;;;6.10;99.90;;;;;;5041530;28;20192;-85
2023/03/10 02:52:42;;;;;;;25.80;15.05;;;6.20;99.90;;;;;;5044244;28;20210;-81
2023/03/10 02:55:16;;;;;;;21.25;14.98;;;6.40;99.90;;;;;;5015658;28;20211;-81
2023/03/10 02:57:43;;;;;;;18.13;10.77;;;6.50;99.90;;;;;;5035079;28;20358;-84
2023/03/10 03:00:11;;;;;;;11.77;10.57;;;6.60;99.90;;;;;;5026268;28;20516;-85
2023/03/10 03:02:38;;;;;;;9.77;8.50;;;6.70;99.90;;;;;;5022242;28;20231;-86
2023/03/10 03:05:06;;;;;;;13.88;9.27;;;6.90;99.90;;;;;;5022980;28;20205;-84
2023/03/10 03:07:33;;;;;;;10.90;8.18;;;6.90;99.90;;;;;;5001724;28;20201;-84
2023/03/10 03:10:00;;;;;;;12.63;8.23;;;6.90;99.90;;;;;;5016553;28;20208;-87
2023/03/10 03:12:27;;;;;;;7.50;6.72;;;7.10;99.90;;;;;;5007323;28;20575;-86
2023/03/10 03:14:54;;;;;;;9.60;7.03;;;7.00;99.90;;;;;;5003874;28;20266;-85
2023/03/10 03:17:22;;;;;;;8.32;7.43;;;7.00;99.90;;;;;;5022678;28;20232;-84
2023/03/10 03:19:49;;;;;;;6.60;5.88;;;7.10;99.90;;;;;;5020775;28;20216;-84
2023/03/10 03:22:15;;;;;;;6.25;5.72;;;7.20;99.90;;;;;;5020481;28;20213;-82
2023/03/10 03:24:43;;;;;;;6.65;6.05;;;7.20;99.90;;;;;;5002253;28;20217;-85
2023/03/10 03:27:10;;;;;;;8.82;5.13;;;7.20;99.90;;;;;;4995311;28;20205;-85
2023/03/10 03:29:37;;;;;;;6.18;5.60;;;7.20;99.90;;;;;;5021829;28;20197;-85
2023/03/10 03:32:04;;;;;;;6.95;6.22;;;7.30;99.90;;;;;;5019760;28;20252;-84
2023/03/10 03:34:31;;;;;;;6.43;4.93;;;7.20;99.90;;;;;;5019389;28;20232;-85
2023/03/10 03:36:58;;;;;;;5.85;4.93;;;7.20;99.90;;;;;;5020659;28;20379;-84
2023/03/10 03:39:25;;;;;;;7.22;6.18;;;7.20;99.90;;;;;;5030977;28;20240;-84
2023/03/10 03:41:56;;;;;;;11.32;6.63;;;7.30;99.90;;;;;;5034655;28;20192;-83
2023/03/10 03:44:23;;;;;;;6.80;4.97;;;7.30;99.90;;;;;;5007931;28;20211;-88
2023/03/10 03:46:50;;;;;;;10.05;5.35;;;7.40;99.90;;;;;;5032957;28;20272;-86
2023/03/10 03:49:17;;;;;;;5.05;4.43;;;7.60;99.90;;;;;;5027097;28;20214;-87
2023/03/10 03:51:44;;;;;;;11.27;4.22;;;7.60;99.90;;;;;;5024824;28;20216;-87
2023/03/10 03:54:11;;;;;;;8.82;4.60;;;7.70;99.90;;;;;;5022702;28;20243;-89
2023/03/10 03:56:38;;;;;;;8.77;5.28;;;7.90;99.90;;;;;;5025917;28;20214;-88
2023/03/10 03:59:05;;;;;;;4.70;4.38;;;7.70;99.90;;;;;;5043535;28;20247;-86
2023/03/10 04:01:32;;;;;;;4.97;4.50;;;7.70;99.90;;;;;;5038767;28;20204;-82
2023/03/10 04:03:59;;;;;;;8.57;4.60;;;7.70;99.90;;;;;;5038482;28;20216;-82
2023/03/10 04:06:26;;;;;;;3.15;2.60;;;7.90;99.90;;;;;;5036641;28;20194;-81
2023/03/10 04:08:54;;;;;;;6.55;2.63;;;7.90;99.90;;;;;;5013092;28;20208;-86
2023/03/10 04:11:21;;;;;;;5.22;4.25;;;7.80;99.90;;;;;;5029940;28;20263;-84
2023/03/10 04:13:48;;;;;;;5.85;3.30;;;8.00;99.90;;;;;;5022372;28;20296;-86
2023/03/10 04:16:15;;;;;;;3.55;2.58;;;8.00;99.90;;;;;;5017523;28;20209;-87
2023/03/10 04:18:43;;;;;;;4.05;2.30;;;7.90;99.90;;;;;;5024230;28;20230;-86
2023/03/10 04:21:10;;;;;;;3.97;2.80;;;7.90;99.90;;;;;;5020003;28;20255;-86
2023/03/10 04:23:40;;;;;;;2.92;2.53;;;7.90;99.90;;;;;;5007443;28;20685;-86
2023/03/10 04:26:08;;;;;;;2.92;2.72;;;8.10;99.90;;;;;;5020316;28;20244;-85
2023/03/10 04:28:36;;;;;;;3.70;2.08;;;8.00;99.90;;;;;;5007275;28;20232;-85
2023/03/10 04:31:03;;;;;;;4.85;2.72;;;8.20;99.90;;;;;;5017580;28;20214;-84
2023/03/10 04:33:31;;;;;;;5.63;3.75;;;8.10;99.90;;;;;;5020275;28;20220;-86
2023/03/10 04:36:03;;;;;;;2.65;2.08;;;8.20;99.90;;;;;;4999757;28;20217;-87
2023/03/10 04:38:30;;;;;;;1.80;1.52;;;8.10;99.90;;;;;;5015698;28;20727;-87
2023/03/10 04:40:57;;;;;;;2.97;1.75;;;8.10;99.90;;;;;;5014439;28;20215;-87
2023/03/10 04:43:24;;;;;;;2.53;1.90;;;8.30;99.90;;;;;;5017240;28;20220;-87
2023/03/10 04:45:51;;;;;;;3.58;2.60;;;8.30;99.90;;;;;;5019197;28;20255;-89
2023/03/10 04:48:18;;;;;;;2.63;2.42;;;8.30;99.90;;;;;;5017015;28;20215;-85
2023/03/10 04:50:58;;;;;;;5.38;2.55;;;8.40;99.90;;;;;;5001778;28;20211;-87
2023/03/10 04:53:25;;;;;;;6.18;2.75;;;8.30;99.90;;;;;;5020752;28;20281;-87
2023/03/10 04:55:53;;;;;;;2.55;1.80;;;8.20;99.90;;;;;;5021364;28;20212;-88
2023/03/10 04:58:20;;;;;;;9.32;2.17;;;8.10;99.90;;;;;;5022878;28;20209;-87
2023/03/10 05:00:48;;;;;;;3.05;1.73;;;8.10;99.90;;;;;;5021316;28;20238;-84
2023/03/10 05:03:28;;;;;;;2.78;2.15;;;8.30;99.90;;;;;;5021633;28;20212;-85
2023/03/10 05:05:56;;;;;;;5.35;3.10;;;8.30;99.90;;;;;;5002633;28;20211;-86
2023/03/10 05:08:23;;;;;;;4.38;2.78;;;8.10;99.90;;;;;;5020965;28;20220;-87
2023/03/10 05:10:50;;;;;;;2.55;1.55;;;8.20;99.90;;;;;;5020471;28;20425;-86
2023/03/10 05:13:17;;;;;;;5.90;1.90;;;8.20;99.90;;;;;;5020194;28;20205;-85
2023/03/10 05:15:44;;;;;;;6.55;2.00;;;8.20;99.90;;;;;;4997571;28;20475;-86
2023/03/10 05:18:11;;;;;;;5.40;2.75;;;8.30;99.90;;;;;;5019488;28;20193;-84
2023/03/10 05:20:38;;;;;;;3.47;1.80;;;8.30;99.90;;;;;;5031867;28;20189;-82
2023/03/10 05:23:05;;;;;;;4.32;2.42;;;8.30;99.90;;;;;;5029025;28;20204;-83
2023/03/10 05:25:32;;;;;;;4.30;1.95;;;8.40;99.90;;;;;;5019441;28;20205;-84
2023/03/10 05:27:59;;;;;;;3.15;2.25;;;8.50;99.90;;;;;;5000824;28;20211;-85
2023/03/10 05:30:26;;;;;;;9.98;5.00;;;8.50;99.90;;;;;;5017825;28;20425;-83
2023/03/10 05:32:53;;;;;;;12.75;6.55;;;8.50;99.90;;;;;;5017545;28;20242;-83
2023/03/10 05:35:20;;;;;;;8.77;3.40;;;8.50;99.90;;;;;;5018579;28;20224;-84
2023/03/10 05:37:47;;;;;;;7.88;2.85;;;8.50;99.90;;;;;;5018819;28;20551;-86
2023/03/10 05:40:18;;;;;;;3.25;2.13;;;8.40;99.90;;;;;;5013836;28;20342;-85
2023/03/10 05:42:46;;;;;;;10.18;2.78;;;8.40;99.90;;;;;;5018146;28;20190;-80
2023/03/10 05:45:14;;;;;;;3.85;2.03;;;8.40;99.90;;;;;;5031832;28;20223;-81
2023/03/10 05:47:42;;;;;;;5.40;3.80;;;8.60;99.90;;;;;;5029171;28;20274;-83
2023/03/10 05:50:10;;;;;;;6.47;3.92;;;8.70;99.90;;;;;;5018933;28;20204;-83
2023/03/10 05:52:39;;;;;;;6.82;4.38;;;8.50;99.90;;;;;;5014530;28;20247;-84
2023/03/10 05:55:07;;;;;;;14.60;3.20;;;8.40;99.90;;;;;;5018178;28;20236;-84
2023/03/10 05:57:34;;;;;;;5.55;2.70;;;8.50;99.90;;;;;;5020294;28;20212;-85
2023/03/10 06:00:01;;;;;;;4.75;1.98;;;8.60;99.90;;;;;;5018037;28;20205;-81
2023/03/10 06:02:28;;;;;;;11.25;5.03;;;8.70;99.90;;;;;;5018574;28;20455;-85
2023/03/10 06:04:55;;;;;;;21.90;9.40;;;8.60;99.90;;;;;;5018254;28;20559;-87
2023/03/10 06:07:22;;;;;;;36.70;6.30;;;8.60;99.90;;;;;;5018501;28;20350;-86
2023/03/10 06:09:52;;;;;;;3.40;2.95;;;8.80;99.90;;;;;;5020466;28;20260;-83
2023/03/10 06:12:20;;;;;;;4.32;2.75;;;8.80;99.90;;;;;;5018317;28;20242;-85
2023/03/10 06:14:47;;;;;;;4.50;3.83;;;8.80;99.90;;;;;;5019883;28;20287;-85
2023/03/10 06:17:14;;;;;;;6.65;2.95;;;8.90;99.90;;;;;;5022183;28;20208;-85
2023/03/10 06:19:43;;;;;;;6.93;1.70;;;9.00;99.90;;;;;;5021685;28;20560;-84
2023/03/10 06:22:10;;;;;;;2.85;1.75;;;9.10;99.90;;;;;;5016917;28;20279;-83
2023/03/10 06:24:37;;;;;;;3.95;2.50;;;9.20;99.90;;;;;;5014878;28;20213;-84
2023/03/10 06:27:04;;;;;;;2.83;2.35;;;9.20;99.90;;;;;;5001267;28;20516;-84
2023/03/10 06:29:31;;;;;;;8.15;3.10;;;9.20;99.90;;;;;;5001691;28;20212;-85
2023/03/10 06:32:00;;;;;;;11.00;3.65;;;9.30;99.90;;;;;;5018697;28;20220;-84
2023/03/10 06:34:27;;;;;;;4.75;2.85;;;9.40;99.90;;;;;;5033650;28;20291;-82
2023/03/10 06:36:54;;;;;;;9.20;2.35;;;9.40;99.90;;;;;;5030880;28;20223;-85
2023/03/10 06:39:21;;;;;;;5.88;2.80;;;9.30;99.90;;;;;;5033288;28;20235;-82
2023/03/10 06:41:50;;;;;;;5.22;2.90;;;9.40;99.90;;;;;;5025313;28;20197;-86
2023/03/10 06:44:17;;;;;;;2.90;2.47;;;9.10;99.90;;;;;;5018943;28;20701;-85
2023/03/10 06:46:45;;;;;;;5.85;1.98;;;9.10;99.90;;;;;;5003132;28;20217;-88
2023/03/10 06:49:12;;;;;;;4.32;2.45;;;9.10;99.90;;;;;;5023020;28;20205;-85
2023/03/10 06:51:41;;;;;;;8.23;3.00;;;9.00;99.90;;;;;;5028386;28;20208;-85
2023/03/10 06:54:08;;;;;;;11.40;3.08;;;9.00;99.90;;;;;;5014324;28;20470;-85
2023/03/10 06:56:35;;;;;;;3.15;2.00;;;9.00;99.90;;;;;;5006488;28;20204;-87
2023/03/10 06:59:02;;;;;;;7.45;3.72;;;9.30;99.90;;;;;;5023386;28;20209;-86
2023/03/10 07:01:31;;;;;;;3.50;2.30;;;9.30;99.90;;;;;;5027685;28;20208;-85
2023/03/10 07:04:00;;;;;;;4.35;2.42;;;9.60;99.90;;;;;;5009909;28;20209;-85
2023/03/10 07:06:27;;;;;;;3.97;2.53;;;9.70;99.90;;;;;;5025462;28;20235;-86
2023/03/10 07:08:54;;;;;;;7.72;3.55;;;10.00;99.90;;;;;;5031481;28;20208;-86
2023/03/10 07:11:23;;;;;;;8.30;3.22;;;10.30;99.90;;;;;;5023163;28;20212;-83
2023/03/10 07:13:50;;;;;;;9.27;3.15;;;10.20;99.90;;;;;;5028346;28;20435;-85
2023/03/10 07:16:17;;;;;;;6.35;1.98;;;10.30;99.90;;;;;;5005967;28;20459;-85
2023/03/10 07:18:44;;;;;;;3.53;2.05;;;10.20;99.90;;;;;;5025182;28;20205;-86
2023/03/10 07:21:16;;;;;;;7.05;4.30;;;10.30;99.90;;;;;;5030181;28;20197;-84
2023/03/10 07:23:43;;;;;;;9.25;6.45;;;10.50;99.90;;;;;;5029980;28;20205;-83
2023/03/10 07:26:13;;;;;;;5.15;3.90;;;10.50;99.90;;;;;;5029904;28;20206;-85
2023/03/10 07:28:40;;;;;;;4.72;3.10;;;10.40;99.90;;;;;;5024684;28;20209;-86
2023/03/10 07:31:10;;;;;;;4.07;2.45;;;10.60;99.90;;;;;;5013577;28;20228;-86
2023/03/10 07:33:37;;;;;;;3.05;2.75;;;10.70;99.90;;;;;;5026895;28;20232;-85
2023/03/10 07:36:06;;;;;;;4.70;2.53;;;10.80;99.90;;;;;;5023861;28;20393;-85
2023/03/10 07:38:35;;;;;;;4.90;3.10;;;10.80;99.90;;;;;;5022885;28;20292;-84
2023/03/10 07:41:10;;;;;;;7.13;2.65;;;10.80;99.90;;;;;;5022163;28;20209;-85
2023/03/10 07:43:38;;;;;;;39.10;17.08;;;11.00;99.90;;;;;;5021336;28;20223;-85
2023/03/10 07:46:10;;;;;;;23.52;10.57;;;11.30;99.90;;;;;;5004096;28;20213;-84
2023/03/10 07:48:37;;;;;;;6.30;4.35;;;11.40;99.90;;;;;;5021128;28;20517;-85
2023/03/10 07:51:05;;;;;;;106.65;48.03;;;11.40;99.90;;;;;;5023854;28;20256;-86
2023/03/10 07:53:32;;;;;;;18.00;9.32;;;11.70;99.90;;;;;;5011015;28;20213;-86
2023/03/10 07:56:11;;;;;;;16.08;8.10;;;11.80;99.90;;;;;;5023640;28;20234;-86
2023/03/10 07:58:39;;;;;;;8.20;4.70;;;12.00;99.90;;;;;;5025829;28;20205;-87
2023/03/10 08:01:12;;;;;;;11.35;4.82;;;12.00;99.90;;;;;;5018502;28;20211;-86
2023/03/10 08:03:40;;;;;;;13.10;5.00;;;11.90;99.90;;;;;;5021938;28;20497;-85
2023/03/10 08:06:08;;;;;;;6.82;3.20;;;11.90;99.90;;;;;;5018000;28;20542;-87
2023/03/10 08:08:38;;;;;;;7.18;2.80;;;11.60;99.90;;;;;;5004014;28;20407;-86
2023/03/10 08:11:09;;;;;;;3.38;2.42;;;11.70;99.90;;;;;;5020598;28;21027;-86
2023/03/10 08:13:37;;;;;;;5.38;3.45;;;11.80;99.90;;;;;;5020792;28;20403;-87
2023/03/10 08:16:05;;;;;;;4.85;2.47;;;11.70;99.90;;;;;;5003947;28;20248;-86
2023/03/10 08:18:32;;;;;;;7.60;3.10;;;11.60;99.90;;;;;;5021350;28;20213;-85
2023/03/10 08:21:04;;;;;;;7.53;2.95;;;11.40;99.90;;;;;;5027762;28;20517;-85
2023/03/10 08:23:32;;;;;;;7.28;3.42;;;11.10;99.90;;;;;;5003082;28;20212;-85
2023/03/10 08:26:06;;;;;;;8.63;3.45;;;10.90;99.90;;;;;;5024958;28;20209;-85
2023/03/10 08:28:36;;;;;;;6.68;2.03;;;11.10;99.90;;;;;;5028282;28;20305;-84
2023/03/10 08:31:15;;;;;;;2.55;1.70;;;11.30;99.90;;;;;;5032910;28;20202;-85
2023/03/10 08:33:42;;;;;;;2.88;2.00;;;11.40;99.90;;;;;;5033815;28;20191;-83
2023/03/10 08:36:13;;;;;;;5.70;1.92;;;11.50;99.90;;;;;;5032222;28;20229;-84
2023/03/10 08:38:41;;;;;;;3.55;2.10;;;11.60;99.90;;;;;;5039441;28;20202;-84
2023/03/10 08:41:27;;;;;;;1.80;1.40;;;11.80;99.90;;;;;;5033974;28;20185;-85
2023/03/10 08:43:55;;;;;;;2.65;1.58;;;11.90;99.90;;;;;;5028804;28;20199;-82
2023/03/10 08:46:23;;;;;;;6.28;2.97;;;11.90;99.90;;;;;;5004222;28;20322;-86
2023/03/10 08:48:51;;;;;;;2.17;1.52;;;12.00;99.90;;;;;;5022702;28;20261;-84
2023/03/10 08:51:18;;;;;;;2.88;2.00;;;12.00;99.90;;;;;;5005127;28;20210;-84
2023/03/10 08:53:48;;;;;;;3.40;1.60;;;11.90;99.90;;;;;;5022155;28;20221;-86
2023/03/10 08:56:17;;;;;;;4.55;1.67;;;11.90;99.90;;;;;;5017419;28;20259;-85
2023/03/10 08:58:44;;;;;;;4.60;2.78;;;11.90;99.90;;;;;;5002679;28;20214;-83
2023/03/10 09:01:13;;;;;;;6.82;2.55;;;12.00;99.90;;;;;;5020281;28;20214;-86
2023/03/10 09:03:42;;;;;;;2.75;1.70;;;12.00;99.90;;;;;;5020433;28;20210;-83
2023/03/10 09:06:09;;;;;;;4.05;1.75;;;12.30;99.90;;;;;;5002886;28;20214;-83
2023/03/10 09:08:35;;;;;;;8.00;2.25;;;12.60;99.90;;;;;;5020855;28;20401;-84
2023/03/10 09:11:02;;;;;;;3.90;2.38;;;12.80;99.90;;;;;;5019319;28;20223;-84
2023/03/10 09:13:30;;;;;;;3.70;1.88;;;12.90;99.90;;;;;;5002560;28;20248;-86
2023/03/10 09:15:56;;;;;;;1.73;1.60;;;12.90;99.90;;;;;;5013723;28;20603;-84
2023/03/10 09:18:24;;;;;;;2.22;1.50;;;13.10;99.90;;;;;;5003280;28;20278;-85
2023/03/10 09:20:51;;;;;;;3.72;2.90;;;13.00;99.90;;;;;;5001727;28;20235;-84
2023/03/10 09:23:18;;;;;;;3.88;2.30;;;13.00;99.90;;;;;;5019491;28;20272;-85
2023/03/10 09:25:45;;;;;;;2.92;1.50;;;12.90;99.90;;;;;;5020112;28;20225;-83
2023/03/10 09:28:12;;;;;;;40.15;3.38;;;13.00;99.90;;;;;;5028958;28;20235;-85
2023/03/10 09:30:42;;;;;;;2.22;1.30;;;13.00;99.90;;;;;;5019063;28;20466;-84
2023/03/10 09:33:17;;;;;;;3.03;1.60;;;13.10;99.90;;;;;;5024158;28;20223;-85
2023/03/10 09:35:45;;;;;;;3.63;1.63;;;13.20;99.90;;;;;;5022694;28;20234;-84
2023/03/10 09:38:24;;;;;;;2.08;1.30;;;12.90;99.90;;;;;;5013084;28;20259;-85
2023/03/10 09:41:35;;;;;;;1.90;1.30;;;12.80;99.90;;;;;;5028687;28;20204;-85
2023/03/10 09:44:07;;;;;;;2.17;1.40;;;12.60;99.90;;;;;;5007446;28;20236;-85
2023/03/10 09:46:34;;;;;;;7.72;1.67;;;12.60;99.90;;;;;;5020900;28;20256;-85
2023/03/10 09:49:23;;;;;;;2.75;1.70;;;12.50;99.90;;;;;;5019896;28;20462;-85
2023/03/10 09:51:51;;;;;;;2.35;2.15;;;12.40;99.90;;;;;;5007538;28;20213;-86
2023/03/10 09:54:27;;;;;;;2.80;1.83;;;12.40;99.90;;;;;;5022648;28;20210;-86
2023/03/10 09:56:56;;;;;;;1.27;1.15;;;12.30;99.90;;;;;;5002478;28;20364;-85
2023/03/10 09:59:45;;;;;;;3.55;1.77;;;12.10;99.90;;;;;;5017809;28;20237;-85
2023/03/10 10:02:19;;;;;;;2.20;1.35;;;12.40;99.90;;;;;;5030208;28;20467;-85
2023/03/10 10:04:52;;;;;;;2.55;1.60;;;12.60;99.90;;;;;;5023014;28;20250;-85
2023/03/10 10:07:21;;;;;;;3.10;1.35;;;12.80;99.90;;;;;;4999157;28;20216;-85
2023/03/10 10:10:17;;;;;;;1.80;1.58;;;12.90;99.90;;;;;;5022191;28;20246;-84
2023/03/10 10:12:48;;;;;;;1.98;1.60;;;12.80;99.90;;;;;;5023448;28;20243;-85
2023/03/10 10:15:22;;;;;;;1.85;1.10;;;12.80;99.90;;;;;;5017525;28;20234;-86
2023/03/10 10:18:09;;;;;;;3.85;1.88;;;12.90;99.90;;;;;;5016281;28;20209;-86
2023/03/10 10:20:48;;;;;;;1.83;1.40;;;13.20;99.90;;;;;;5019504;28;20203;-85
2023/03/10 10:23:27;;;;;;;2.92;1.48;;;13.60;99.90;;;;;;5002600;28;20200;-84
2023/03/10 10:25:54;;;;;;;2.00;1.50;;;13.60;99.90;;;;;;5005508;28;20213;-85
2023/03/10 10:28:31;;;;;;;5.03;1.73;;;13.90;99.90;;;;;;5002941;28;20252;-84
2023/03/10 10:31:16;;;;;;;3.38;2.00;;;13.90;99.90;;;;;;5023820;28;20314;-84
2023/03/10 10:34:20;;;;;;;2.40;1.60;;;13.90;99.90;;;;;;5009283;28;20212;-85
2023/03/10 10:36:53;;;;;;;2.47;1.10;;;13.90;99.90;;;;;;4958405;29;20540;-84
2023/03/10 10:39:26;;;;;;;2.35;1.20;;;14.00;99.90;;;;;;5006247;28;20209;-84
2023/03/10 10:42:10;;;;;;;1.58;1.48;;;14.20;99.90;;;;;;5020514;28;20208;-84
2023/03/10 10:44:42;;;;;;;3.80;1.83;;;14.30;99.90;;;;;;5024676;28;20208;-84
2023/03/10 10:47:48;;;;;;;4.60;1.55;;;14.50;99.90;;;;;;5020893;28;20330;-84
2023/03/10 10:50:20;;;;;;;1.45;1.35;;;14.40;99.90;;;;;;5001259;28;20232;-85
2023/03/10 10:52:51;;;;;;;3.45;1.77;;;14.40;99.90;;;;;;5020811;28;20211;-84
2023/03/10 10:55:34;;;;;;;2.75;1.85;;;14.50;99.90;;;;;;5021313;28;20441;-83
2023/03/10 10:58:05;;;;;;;2.03;1.88;;;14.30;99.90;;;;;;5018580;28;20206;-84
2023/03/10 11:00:35;;;;;;;1.35;1.02;;;14.30;99.90;;;;;;5016242;28;20589;-83
2023/03/10 11:03:24;;;;;;;1.50;1.10;;;13.90;99.90;;;;;;5018787;28;20215;-83
2023/03/10 11:05:51;;;;;;;3.28;1.20;;;13.70;99.90;;;;;;5018802;28;20212;-83
2023/03/10 11:08:33;;;;;;;2.60;1.70;;;13.70;99.90;;;;;;5006655;28;20216;-84
2023/03/10 11:11:07;;;;;;;2.22;1.33;;;14.00;99.90;;;;;;5022416;28;20212;-84
2023/03/10 11:13:57;;;;;;;2.45;1.10;;;14.30;99.90;;;;;;5004911;28;20307;-85
2023/03/10 11:16:49;;;;;;;4.18;1.77;;;14.50;99.90;;;;;;5005035;28;20232;-83
2023/03/10 11:19:42;;;;;;;2.47;1.65;;;14.70;99.90;;;;;;5026048;28;20220;-84
2023/03/10 11:22:56;;;;;;;1.02;0.90;;;14.70;99.90;;;;;;5034153;28;20185;-83
2023/03/10 11:25:26;;;;;;;3.40;1.27;;;14.70;99.90;;;;;;4991882;28;20243;-84
2023/03/10 11:28:26;;;;;;;1.90;1.03;;;14.70;99.90;;;;;;5005559;28;20529;-84
2023/03/10 11:31:32;;;;;;;4.93;1.77;;;14.70;99.90;;;;;;5024042;28;20458;-84
2023/03/10 11:34:21;;;;;;;3.60;3.28;;;14.30;99.90;;;;;;5017045;28;20454;-84
2023/03/10 11:37:03;;;;;;;2.53;1.40;;;14.40;99.90;;;;;;5022693;28;20209;-84
2023/03/10 11:39:58;;;;;;;1.55;1.25;;;14.40;99.90;;;;;;5021362;28;20676;-83
2023/03/10 11:42:48;;;;;;;1.75;1.40;;;14.30;99.90;;;;;;5020425;28;20543;-84
2023/03/10 11:45:33;;;;;;;8.40;1.90;;;14.20;99.90;;;;;;5021250;28;20428;-83
2023/03/10 11:48:40;;;;;;;4.53;1.55;;;14.10;99.90;;;;;;5027597;28;20209;-82
2023/03/10 11:51:33;;;;;;;3.70;1.40;;;14.10;99.90;;;;;;5019089;28;20251;-84
2023/03/10 11:54:09;;;;;;;8.40;1.70;;;13.90;99.90;;;;;;5023197;28;20205;-84
2023/03/10 11:56:37;;;;;;;8.93;2.53;;;14.00;99.90;;;;;;5017709;28;20248;-84
2023/03/10 11:59:18;;;;;;;3.30;1.63;;;13.90;99.90;;;;;;5021318;28;20469;-83
2023/03/10 12:02:11;;;;;;;2.35;1.55;;;14.30;99.90;;;;;;5015653;28;20308;-83
2023/03/10 12:04:47;;;;;;;5.22;1.48;;;14.40;99.90;;;;;;5017456;28;20212;-83
2023/03/10 12:07:30;;;;;;;1.85;1.40;;;14.40;99.90;;;;;;5021891;28;20209;-86
2023/03/10 12:10:11;;;;;;;1.75;1.33;;;14.50;99.90;;;;;;5024076;28;20212;-85
2023/03/10 12:12:43;;;;;;;4.00;1.95;;;14.60;99.90;;;;;;5018767;28;20211;-85
2023/03/10 12:15:22;;;;;;;2.35;1.55;;;14.80;99.90;;;;;;5021586;28;20213;-83
2023/03/10 12:17:51;;;;;;;2.17;1.53;;;14.90;99.90;;;;;;5000251;28;20219;-85
2023/03/10 12:20:19;;;;;;;3.43;2.03;;;15.10;99.90;;;;;;5024918;28;20526;-83
2023/03/10 12:23:19;;;;;;;1.85;1.60;;;15.30;99.90;;;;;;5020828;28;20418;-85
2023/03/10 12:25:47;;;;;;;2.40;1.73;;;15.40;99.90;;;;;;5002136;28;20282;-84
2023/03/10 12:28:15;;;;;;;3.57;2.07;;;15.50;99.90;;;;;;5021911;28;20463;-85
2023/03/10 12:30:44;;;;;;;6.40;2.80;;;16.00;99.90;;;;;;5021016;28;20514;-85
2023/03/10 12:36:08;;;;;;;2.90;1.90;;;16.70;99.90;;;;;;4996501;28;20694;-83
2023/03/10 12:39:01;;;;;;;4.80;2.00;;;16.80;99.90;;;;;;4999802;28;20650;-83
2023/03/10 12:41:27;;;;;;;2.00;1.30;;;16.40;99.90;;;;;;5016611;28;20812;-84
2023/03/10 12:43:58;;;;;;;4.30;1.30;;;15.80;99.90;;;;;;5003509;28;20839;-85
2023/03/10 12:46:39;;;;;;;6.70;2.50;;;15.80;99.90;;;;;;5004137;28;20432;-83
2023/03/10 12:49:21;;;;;;;1.50;1.37;;;15.70;99.90;;;;;;5021786;28;20450;-83
2023/03/10 12:52:06;;;;;;;3.60;1.53;;;15.80;99.90;;;;;;5020970;28;20422;-83
2023/03/10 12:54:46;;;;;;;1.90;1.73;;;16.00;99.90;;;;;;5023133;28;20438;-85
2023/03/10 12:57:32;;;;;;;2.80;1.83;;;15.90;99.90;;;;;;5025762;28;20488;-85
2023/03/10 13:00:03;;;;;;;5.60;1.97;;;15.90;99.90;;;;;;5027550;28;20485;-82
2023/03/10 13:03:07;;;;;;;2.57;1.90;;;15.80;99.90;;;;;;4995776;28;20450;-84
2023/03/10 13:05:40;;;;;;;1.53;1.40;;;15.90;99.90;;;;;;5015259;28;20450;-85
2023/03/10 13:08:30;;;;;;;3.20;1.67;;;16.10;99.90;;;;;;5022102;28;20802;-85
2023/03/10 13:10:58;;;;;;;4.20;1.73;;;16.30;99.90;;;;;;5022320;28;20462;-83
2023/03/10 13:13:33;;;;;;;2.20;2.00;;;16.20;99.90;;;;;;5005707;28;20664;-85
2023/03/10 13:16:04;;;;;;;4.73;2.30;;;16.30;99.90;;;;;;4980739;28;20456;-84